Date,TemperatureHighF,TemperatureAvgF,TemperatureLowF,DewpointHighF,DewpointAvgF,DewpointLowF,HumidityHigh,HumidityAvg,HumidityLow,PressureMaxIn,PressureMinIn,WindSpeedMaxMPH,WindSpeedAvgMPH,GustSpeedMaxMPH,PrecipitationSumIn
2013-1-1,17.2,2.4,-12.3,12.3,-1.9,-16.1,87,82,75,30.18,30.08,9,1,9,0.00
2013-1-2,25.2,16.0,5.0,17.0,11.0,1.2,87,81,66,30.09,29.96,11,2,11,0.00
2013-1-3,25.9,19.3,7.2,21.5,15.7,3.2,90,86,79,30.18,29.98,14,4,14,0.00
2013-1-4,28.9,16.4,7.0,20.7,11.6,3.1,88,81,70,30.14,30.02,17,5,17,0.00
2013-1-5,34.3,22.1,2.8,31.4,18.5,-0.3,90,86,77,30.14,29.81,17,4,17,0.00
2013-1-6,30.6,20.2,1.9,26.3,15.3,-1.2,87,81,73,30.22,29.82,16,2,17,0.00
2013-1-7,36.7,21.8,1.2,25.8,16.0,-1.9,89,79,65,30.21,29.96,21,3,21,0.00
2013-1-8,38.1,28.1,10.2,31.2,23.2,7.6,90,82,70,30.04,29.88,17,2,17,0.00
2013-1-9,38.3,30.6,15.8,30.8,24.0,12.3,87,77,64,30.40,29.88,24,6,24,0.00
2013-1-10,38.3,26.2,9.7,32.6,21.8,6.8,93,84,67,30.43,29.80,16,2,16,0.19
2013-1-11,45.5,38.6,33.1,44.2,37.3,31.8,96,95,93,29.79,29.54,14,2,14,0.02
2013-1-12,46.8,31.8,19.9,43.9,26.6,14.9,94,81,73,29.96,29.55,23,7,23,0.00
2013-1-13,21.7,16.2,10.2,15.3,9.2,3.8,79,74,63,30.14,29.85,17,4,17,0.00
2013-1-14,25.9,13.2,3.9,13.3,6.3,-0.2,84,74,57,30.37,30.14,11,2,11,0.00
2013-1-15,30.0,16.3,3.7,18.9,9.2,0.1,87,74,56,30.34,30.00,13,2,13,0.00
2013-1-16,34.5,26.2,12.2,30.6,20.0,7.4,87,77,67,30.01,29.71,22,5,22,0.00
2013-1-17,28.6,19.1,7.0,21.1,9.3,1.9,83,66,47,30.32,30.01,10,1,10,0.00
2013-1-18,43.2,29.8,7.0,32.6,23.0,2.6,85,76,63,30.34,29.77,26,6,26,0.00
2013-1-19,46.2,35.1,13.1,35.5,27.3,2.8,85,74,47,29.93,29.62,26,6,26,0.00
2013-1-20,18.0,10.6,6.1,4.0,0.4,-1.9,70,63,50,30.25,29.93,20,4,26,0.00
2013-1-21,9.7,3.0,-2.4,1.4,-6.2,-10.2,76,65,53,30.20,30.06,17,5,17,0.00
2013-1-22,10.6,2.0,-6.9,-1.8,-6.8,-12.7,76,67,54,30.28,30.19,13,2,13,0.00
2013-1-23,19.2,11.8,3.0,12.7,4.5,-5.2,82,72,63,30.36,30.01,16,4,16,0.00
2013-1-24,15.8,6.9,-1.7,8.9,-1.7,-8.5,74,68,57,30.57,30.24,10,2,10,0.00
2013-1-25,26.2,19.0,11.5,16.8,11.8,4.4,83,73,63,30.24,29.86,21,4,21,0.00
2013-1-26,27.7,16.4,1.8,13.6,7.1,-2.8,82,67,50,30.32,30.14,9,1,9,0.00
2013-1-27,32.7,27.4,20.5,30.9,22.2,12.2,93,81,68,30.25,29.77,17,3,17,0.00
2013-1-28,43.7,36.1,32.4,37.9,33.0,30.4,95,89,74,29.88,29.70,10,1,10,0.20
2013-1-29,53.2,40.9,33.6,52.1,39.6,32.3,96,95,94,29.70,29.44,8,1,8,1.08
2013-1-30,33.8,26.3,14.2,32.5,24.4,10.7,96,92,86,29.58,29.29,14,4,14,0.06
2013-1-31,13.8,8.2,-2.6,10.4,3.1,-7.2,86,79,73,30.10,29.58,15,5,15,0.00
2013-2-1,4.8,-1.2,-11.0,0.8,-7.2,-15.5,84,75,66,30.24,30.03,14,4,14,0.00
2013-2-2,17.8,7.3,-2.6,8.6,1.9,-6.8,86,79,65,30.04,29.93,10,1,10,0.03
2013-2-3,21.0,12.9,3.0,12.1,7.6,-0.8,87,80,66,29.97,29.87,14,2,14,0.00
2013-2-4,21.0,12.1,1.2,13.7,7.5,-2.9,89,82,69,29.93,29.85,14,3,14,0.00
2013-2-5,29.5,18.6,-0.8,24.4,14.2,-4.9,88,83,77,30.03,29.71,14,2,14,0.00
2013-2-6,32.9,17.3,-6.9,29.3,12.3,-11.0,87,81,68,30.14,29.98,10,1,10,0.00
2013-2-7,34.9,31.0,22.1,32.7,28.8,19.8,94,91,86,30.03,29.86,8,1,8,0.12
2013-2-8,30.4,18.9,-2.2,21.7,14.2,-6.3,91,82,69,30.32,30.03,0,0,0,0.12
2013-2-9,28.9,20.7,-3.3,24.8,17.3,-6.8,91,87,81,30.32,29.99,0,0,0,0.00
2013-2-10,41.9,32.6,16.3,40.4,30.6,14.0,95,92,86,30.00,29.33,24,4,24,0.37
2013-2-11,36.0,28.9,22.8,32.1,24.4,17.9,90,83,77,29.95,29.35,28,12,28,0.00
2013-2-12,30.9,22.2,13.6,22.4,16.8,10.7,89,80,71,30.02,29.80,16,4,16,0.00
2013-2-13,37.2,25.3,9.1,29.0,20.5,6.3,90,82,70,29.80,29.61,11,1,11,0.00
2013-2-14,38.3,32.7,25.5,32.0,26.7,20.2,91,79,61,29.95,29.52,17,3,17,0.02
2013-2-15,28.9,19.3,9.3,21.0,9.0,0.7,78,64,49,30.15,29.94,14,1,14,0.00
2013-2-16,21.0,8.1,-2.9,9.6,-0.3,-8.1,82,69,50,30.14,30.07,11,0,11,0.00
2013-2-17,27.1,13.2,-7.1,19.8,5.1,-11.7,82,71,56,30.13,29.83,11,2,11,0.00
2013-2-18,46.0,32.8,20.5,35.3,26.8,16.1,92,79,66,29.83,29.44,14,2,14,0.06
2013-2-19,20.3,11.9,4.8,16.2,5.6,-1.9,86,76,65,30.14,29.54,20,1,20,0.00
2013-2-20,26.4,12.7,2.8,13.1,4.0,-3.6,81,68,55,30.31,30.14,10,2,10,0.00
2013-2-21,25.0,17.3,5.5,22.1,12.9,0.9,92,83,74,30.35,29.94,23,8,24,0.00
2013-2-22,32.5,26.4,23.2,28.5,23.5,21.0,92,89,84,29.94,29.73,22,5,22,0.04
2013-2-23,29.1,24.1,19.0,21.5,18.7,13.9,86,80,69,29.89,29.79,16,6,16,0.02
2013-2-24,41.7,22.1,3.9,27.0,14.6,0.6,87,74,53,30.08,29.89,6,0,6,0.00
2013-2-25,40.3,25.7,10.2,28.1,19.2,7.1,88,77,61,30.10,29.96,8,1,8,0.00
2013-2-26,32.9,30.1,27.9,28.2,25.8,22.8,94,84,76,29.96,29.60,32,14,32,0.00
2013-2-27,34.2,30.3,27.3,31.7,28.4,25.6,94,92,90,29.75,29.59,21,5,23,0.14
2013-2-28,35.4,30.8,23.5,29.0,25.7,18.3,91,81,67,30.08,29.75,17,4,17,0.06
2013-3-1,26.2,19.7,1.9,19.8,14.3,-2.5,86,79,68,30.19,30.08,21,5,21,0.00
2013-3-2,32.5,12.5,-5.6,16.2,4.1,-9.6,85,71,49,30.20,30.10,11,0,11,0.00
2013-3-3,39.4,14.1,-7.2,19.1,3.8,-11.9,82,66,39,30.11,30.02,5,0,5,0.00
2013-3-4,32.5,22.2,5.7,23.2,15.4,0.5,82,75,65,30.06,29.94,18,6,18,0.00
2013-3-5,29.5,27.3,24.6,27.3,24.5,21.8,93,89,81,30.05,29.82,21,6,21,0.04
2013-3-6,35.4,28.2,23.4,27.1,22.7,18.9,90,80,69,30.26,30.05,14,1,14,0.07
2013-3-7,41.9,21.0,-0.2,25.5,13.3,-4.0,86,73,51,30.35,30.25,5,0,5,0.00
2013-3-8,39.9,22.6,1.8,27.7,16.1,-2.1,87,77,61,30.38,30.20,11,1,11,0.00
2013-3-9,39.6,34.6,27.9,33.5,30.0,22.7,93,83,74,30.20,29.74,18,3,18,0.44
2013-3-10,39.4,36.4,33.4,38.0,34.8,31.8,95,94,93,29.75,29.58,23,4,23,0.74
2013-3-11,34.2,32.0,29.1,32.1,29.8,25.2,95,92,85,29.72,29.52,17,2,17,0.02
2013-3-12,32.7,27.1,21.4,27.0,22.6,17.8,91,83,70,29.97,29.72,18,4,18,0.06
2013-3-13,36.3,24.2,11.8,19.2,12.1,5.1,86,62,36,30.26,29.96,12,2,12,0.00
2013-3-14,37.8,22.4,7.5,29.2,17.2,3.7,89,80,70,30.26,30.00,9,1,9,0.02
2013-3-15,36.3,29.1,20.1,32.6,26.5,17.6,92,90,83,30.00,29.74,16,3,16,0.18
2013-3-16,32.7,26.7,21.4,26.2,21.3,16.1,91,80,67,30.09,29.73,18,5,18,0.00
2013-3-17,33.6,24.0,15.8,21.2,15.3,8.0,80,70,60,30.18,29.92,17,7,17,0.00
2013-3-18,35.4,25.6,16.2,31.1,21.3,9.9,90,84,74,29.92,29.53,22,4,22,0.15
2013-3-19,30.2,18.9,10.2,14.7,9.3,4.6,82,67,48,30.01,29.68,22,9,22,0.00
2013-3-20,25.0,15.0,7.0,9.4,4.2,-1.4,74,62,50,30.04,29.96,16,5,16,0.00
2013-3-21,33.6,17.1,3.0,15.1,6.5,-3.5,79,64,46,30.01,29.94,8,1,8,0.00
2013-3-22,42.1,21.6,2.8,20.7,11.1,-1.3,84,66,42,30.03,29.96,5,0,5,0.00
2013-3-23,39.0,27.8,14.9,23.0,17.8,11.2,87,68,49,30.07,30.00,13,2,13,0.00
2013-3-24,30.9,29.1,27.3,27.9,24.2,20.2,91,82,72,30.02,29.75,23,9,23,0.00
2013-3-25,35.4,30.5,25.3,25.7,22.3,17.8,78,71,64,30.05,29.78,20,4,20,0.00
2013-3-26,45.1,34.5,28.6,28.6,24.0,21.5,75,66,52,30.21,30.04,8,1,8,0.00
2013-3-27,45.3,34.5,21.4,28.4,22.8,16.1,81,64,42,30.27,30.21,8,0,8,0.00
2013-3-28,49.8,32.5,15.6,28.1,20.8,12.3,89,65,36,30.30,30.23,6,0,6,0.00
2013-3-29,55.6,36.9,19.8,31.8,23.6,16.4,90,63,33,30.27,30.16,4,0,4,0.00
2013-3-30,51.6,40.6,28.9,39.6,32.6,22.9,92,74,60,30.18,29.78,14,3,14,0.00
2013-3-31,47.5,38.5,30.7,39.3,32.1,18.9,93,78,57,29.88,29.69,20,3,20,0.00
2013-4-1,37.9,30.4,23.2,20.8,16.1,11.7,69,55,41,30.15,29.88,17,2,17,0.00
2013-4-2,42.6,30.4,18.7,20.9,16.0,12.4,80,57,34,30.27,30.15,13,1,13,0.00
2013-4-3,45.7,31.9,16.3,23.5,17.2,12.3,86,58,32,30.38,30.21,12,1,12,0.00
2013-4-4,58.3,41.6,25.2,38.8,28.1,18.2,77,60,44,30.21,29.91,22,4,22,0.00
2013-4-5,50.2,39.9,26.4,29.0,25.0,19.8,79,57,37,30.18,30.01,14,3,14,0.00
2013-4-6,61.0,46.3,33.3,47.9,34.6,19.9,88,65,47,30.06,29.51,21,6,21,0.02
2013-4-7,58.6,46.1,36.0,44.0,36.4,31.2,86,70,48,29.90,29.56,20,3,20,0.00
2013-4-8,66.6,47.9,37.0,51.8,41.8,31.9,93,80,53,29.94,29.56,17,4,17,0.69
2013-4-9,43.9,38.9,36.1,41.7,37.2,33.8,95,94,90,29.96,29.80,21,8,21,1.06
2013-4-10,36.7,34.4,31.6,34.8,32.3,29.3,93,92,90,30.03,29.84,25,10,25,0.86
2013-4-11,39.0,36.5,34.5,37.1,34.6,32.6,94,93,91,29.85,29.52,35,11,35,0.16
2013-4-12,41.5,36.1,33.1,37.7,32.7,27.7,96,88,78,29.76,29.48,13,3,13,0.02
2013-4-13,41.5,34.3,28.4,30.0,27.5,22.9,88,77,61,29.94,29.74,19,5,19,0.00
2013-4-14,51.6,39.3,29.7,45.0,34.6,26.2,92,84,68,29.95,29.52,24,8,24,0.12
2013-4-15,60.4,46.0,38.1,50.0,40.8,34.8,95,83,48,29.93,29.55,24,5,25,0.47
2013-4-16,55.8,43.2,31.3,37.4,32.8,27.6,89,68,47,30.24,29.92,14,2,14,0.00
2013-4-17,42.6,40.0,37.6,40.2,35.8,31.6,94,85,70,30.26,29.77,23,7,23,1.06
2013-4-18,59.2,45.6,35.8,57.7,43.6,31.9,96,93,85,29.83,29.29,28,6,28,0.61
2013-4-19,40.8,35.0,30.0,32.2,28.1,21.7,88,76,61,29.87,29.34,24,10,24,0.00
2013-4-20,47.5,35.0,22.8,24.0,20.4,15.3,85,58,31,30.32,29.88,18,1,18,0.00
2013-4-21,54.0,41.6,26.2,37.4,29.8,21.1,82,64,46,30.42,30.19,21,5,21,0.00
2013-4-22,67.8,54.2,42.6,44.5,38.7,33.9,74,57,39,30.20,29.95,17,4,17,0.00
2013-4-23,55.4,43.6,37.0,45.5,36.2,27.5,87,75,61,29.96,29.85,13,2,13,0.24
2013-4-24,55.4,43.0,31.3,32.3,26.6,24.0,77,55,31,30.00,29.93,18,3,18,0.00
2013-4-25,52.9,42.5,30.2,35.1,31.2,24.7,83,66,43,30.24,29.94,20,5,20,0.00
2013-4-26,69.6,52.8,29.1,47.7,38.2,24.2,83,60,42,30.23,30.09,23,7,23,0.00
2013-4-27,65.1,53.3,39.0,50.3,43.9,35.7,91,72,54,30.19,29.96,13,2,13,0.00
2013-4-28,72.7,53.6,33.1,50.4,42.1,30.7,93,69,41,29.97,29.75,11,1,11,0.00
2013-4-29,71.4,58.4,43.3,56.8,50.6,40.0,91,76,56,29.84,29.66,17,3,17,0.03
2013-4-30,87.1,72.9,59.4,61.6,54.5,48.7,89,57,28,29.84,29.63,27,8,27,0.02
2013-5-1,82.2,66.2,49.3,59.1,50.4,40.6,73,58,44,30.16,29.84,15,3,15,0.00
2013-5-2,56.1,45.1,35.8,43.0,37.4,32.9,90,75,59,30.26,30.15,22,6,22,0.10
2013-5-3,46.6,39.7,34.2,45.2,37.7,31.7,95,92,90,30.18,29.94,19,8,19,0.65
2013-5-4,70.3,55.6,46.2,60.2,49.3,44.1,94,81,49,30.01,29.92,18,4,18,0.16
2013-5-5,74.1,58.2,41.5,53.3,46.7,39.6,94,69,41,30.03,29.95,16,3,16,0.00
2013-5-6,74.5,58.8,39.2,51.8,45.5,37.0,93,65,35,30.04,29.95,14,2,14,0.00
2013-5-7,78.6,63.0,48.7,53.1,46.0,39.3,91,60,27,30.03,29.93,13,1,13,0.00
2013-5-8,80.6,62.6,41.5,55.7,48.1,39.1,92,63,34,30.00,29.90,10,1,10,0.00
2013-5-9,63.0,56.8,48.0,58.2,53.3,46.1,94,88,82,29.93,29.80,17,3,17,0.82
2013-5-10,52.5,46.0,40.6,47.1,43.0,38.5,93,89,82,29.96,29.83,18,4,18,0.33
2013-5-11,55.4,47.1,37.9,48.7,36.1,25.7,94,68,41,30.02,29.77,21,3,21,0.02
2013-5-12,57.0,44.5,31.1,31.5,27.5,23.3,82,53,33,30.08,30.01,17,2,17,0.00
2013-5-13,66.4,49.5,26.6,39.2,32.7,23.5,90,57,29,30.12,29.85,13,2,13,0.00
2013-5-14,90.5,72.5,52.0,61.1,50.9,37.6,66,48,28,29.86,29.54,19,4,19,0.00
2013-5-15,80.4,68.5,49.8,60.1,48.2,42.5,79,50,31,29.83,29.54,14,2,14,0.00
2013-5-16,85.8,66.8,44.4,55.8,48.0,40.2,88,55,29,29.92,29.81,16,2,16,0.00
2013-5-17,67.6,57.9,49.3,56.5,47.5,36.6,89,69,48,30.03,29.91,18,6,18,0.28
2013-5-18,80.4,66.2,51.4,66.4,57.2,45.5,86,73,58,30.01,29.87,10,2,10,0.00
2013-5-19,85.6,71.5,58.1,67.5,62.3,54.9,91,74,51,29.90,29.63,36,3,36,0.04
2013-5-21,76.5,67.0,54.9,59.6,56.2,53.5,97,70,54,29.66,29.61,20,6,22,0.00
2013-5-22,72.0,60.4,50.5,61.9,56.2,50.3,99,87,62,29.73,26.59,20,4,20,0.00
2013-5-23,63.7,53.4,38.5,53.8,45.2,33.4,98,76,39,30.23,29.73,24,9,24,0.02
2013-5-24,65.5,50.0,32.4,43.7,38.3,31.2,99,68,37,30.38,30.22,15,3,15,0.00
2013-5-25,57.7,51.0,44.4,42.9,40.6,36.1,91,68,46,30.32,30.22,17,3,17,0.06
2013-5-26,65.1,53.5,40.1,51.1,43.7,36.7,95,71,45,30.23,30.08,17,5,17,0.01
2013-5-27,54.7,52.8,50.4,52.7,28.0,-45.0,99,73,1,30.07,29.82,89,28,89,0.00
2013-5-28,72.7,61.2,50.9,66.4,58.8,50.6,99,92,77,29.82,29.65,12,4,12,0.72
2013-5-29,81.9,70.5,61.3,67.8,63.6,59.1,99,81,61,29.87,29.72,18,5,18,0.34
2013-5-30,82.2,70.8,61.7,69.9,64.3,58.7,98,81,57,29.84,29.66,30,8,30,0.32
2013-5-31,77.5,67.8,61.7,65.8,61.4,58.7,95,81,58,29.73,29.63,21,8,21,0.01
2013-6-1,79.0,68.1,60.3,66.3,60.4,54.1,99,78,50,29.68,28.92,21,6,21,0.00
2013-6-2,63.9,54.5,45.7,56.0,45.2,40.3,89,72,50,29.97,29.68,17,5,17,0.00
2013-6-3,71.2,52.6,45.7,48.1,43.5,41.6,92,75,36,30.03,29.95,11,1,11,0.00
2013-6-4,68.7,58.6,46.6,54.2,48.5,43.4,95,71,46,30.11,30.01,13,3,13,0.04
2013-6-5,68.2,56.3,47.3,58.6,52.2,45.0,95,86,66,30.07,29.87,13,4,13,0.25
2013-6-6,57.7,54.6,52.0,55.7,52.5,49.2,97,92,85,29.91,29.86,11,4,11,0.22
2013-6-7,71.1,58.3,48.9,55.9,50.9,47.6,96,78,52,29.94,29.86,13,3,13,0.00
2013-6-8,72.5,60.2,45.3,55.7,49.6,44.5,99,71,44,29.94,28.42,13,2,13,0.00
2013-6-9,77.7,65.6,54.5,62.3,55.8,46.8,96,72,52,29.94,29.75,21,5,21,0.20
2013-6-10,81.3,68.2,53.6,65.3,60.7,52.8,99,79,52,29.83,29.73,11,2,11,0.01
2013-6-11,83.5,69.8,51.3,66.3,61.1,51.0,99,76,50,29.87,29.76,12,2,12,0.00
2013-6-12,79.3,69.6,61.5,70.2,64.9,59.6,96,85,70,29.88,29.59,21,6,21,0.44
2013-6-13,78.8,67.2,54.7,61.5,56.9,53.0,96,72,47,30.01,29.71,17,5,17,0.01
2013-6-14,78.1,65.5,48.9,60.1,55.5,47.8,98,73,46,30.11,29.94,10,3,14,0.00
2013-6-15,82.8,69.4,57.6,68.8,61.9,52.5,94,78,58,30.01,29.77,17,5,17,0.07
2013-6-16,85.1,73.4,56.3,67.8,60.1,51.9,95,68,34,29.89,29.81,18,4,18,0.20
2013-6-17,87.1,71.2,54.5,62.1,57.3,52.8,97,66,36,29.92,29.83,21,4,21,0.00
2013-6-18,72.0,62.3,49.5,58.7,52.7,46.0,89,72,54,30.04,29.92,19,7,19,0.00
2013-6-19,80.1,63.6,42.8,57.2,51.2,42.3,99,68,40,30.09,30.00,11,2,11,0.00
2013-6-20,86.2,71.2,52.0,62.2,56.7,47.0,86,63,40,30.09,29.99,14,3,14,0.00
2013-6-21,79.2,69.8,64.2,66.8,63.6,59.5,97,81,63,30.06,29.81,17,4,17,0.66
2013-6-22,83.1,71.1,64.9,72.9,66.2,63.0,97,86,62,30.07,29.87,21,6,21,0.78
2013-6-23,84.6,72.5,60.1,72.7,66.4,59.5,99,82,61,30.03,29.83,19,5,19,0.12
2013-6-24,80.8,70.7,64.9,68.8,65.6,62.8,98,85,64,29.98,29.79,20,4,20,0.00
2013-6-25,82.8,71.5,63.7,73.7,67.9,62.8,99,89,69,29.95,29.76,17,3,17,2.55
2013-6-26,84.4,74.7,64.8,71.0,68.7,64.5,99,83,59,29.76,29.68,22,4,22,1.30
2013-6-27,86.9,75.9,62.8,71.6,65.8,58.7,99,74,46,29.78,29.69,17,4,17,0.00
2013-6-28,78.6,68.2,59.2,65.6,60.8,56.6,96,79,53,29.73,29.62,17,4,17,0.28
2013-6-29,72.1,65.5,61.7,64.9,60.7,55.6,97,85,62,29.81,29.61,23,6,23,0.08
2013-6-30,77.2,65.9,53.2,61.0,54.2,49.2,95,68,45,30.01,29.81,19,7,19,0.00
2013-7-1,78.6,64.6,49.6,58.5,53.0,49.0,99,70,41,30.08,30.01,23,6,23,0.00
2013-7-2,74.5,63.0,50.2,58.8,51.9,41.5,99,71,33,30.08,30.02,17,4,17,0.00
2013-7-3,77.2,60.7,48.2,60.4,55.2,47.8,99,83,44,30.04,29.92,9,2,9,0.00
2013-7-4,82.9,68.2,51.4,63.5,57.8,51.2,99,73,41,29.99,29.90,12,2,12,0.30
2013-7-5,84.9,71.6,57.6,65.7,61.5,56.9,99,74,46,29.96,29.89,110,4,110,0.00
2013-7-6,87.1,72.0,59.0,67.0,62.4,57.9,98,75,48,29.94,29.84,12,3,12,0.30
2013-7-7,88.5,75.8,62.1,71.0,66.9,60.9,97,76,52,29.89,29.81,12,3,12,0.00
2013-7-8,90.1,78.3,70.0,75.1,71.3,67.9,95,80,58,29.88,29.73,14,4,49,0.27
2013-7-9,84.9,75.3,65.8,76.3,71.1,65.6,99,88,67,29.90,29.74,18,4,18,0.06
2013-7-10,79.3,72.4,58.1,72.0,68.0,56.4,94,87,49,29.93,29.74,8,1,8,0.00
2013-7-11,82.2,64.8,58.1,61.8,57.4,55.8,94,80,43,30.05,29.91,16,1,16,0.00
2013-7-12,80.6,66.1,56.3,60.7,57.9,54.8,95,78,44,30.06,29.92,11,2,11,0.00
2013-7-13,83.8,69.2,52.7,65.3,58.4,51.9,98,71,46,30.00,29.92,13,3,13,0.00
2013-7-14,87.8,72.4,54.1,68.9,62.7,53.2,97,74,48,30.06,29.99,14,2,14,0.00
2013-7-15,91.2,77.9,61.3,72.8,68.0,60.2,96,74,48,30.12,30.04,12,2,12,0.00
2013-7-16,91.6,79.8,66.9,74.9,71.2,65.8,96,77,53,30.13,30.07,13,3,13,0.00
2013-7-17,93.6,80.8,68.9,77.0,72.0,67.1,95,77,50,30.14,30.01,12,2,12,0.09
2013-7-18,91.9,80.7,67.1,74.5,70.4,66.3,97,73,50,30.02,29.76,18,5,18,0.01
2013-7-19,81.0,75.5,63.7,71.9,68.2,53.4,92,79,69,30.22,29.73,11,5,11,2.89
2013-7-20,86.0,72.0,56.1,66.2,61.7,55.3,98,73,46,30.11,29.99,12,3,12,0.00
2013-7-21,84.0,67.2,59.5,69.2,60.7,55.2,94,81,57,30.12,30.03,24,5,24,1.02
2013-7-22,85.1,70.8,59.0,71.5,64.0,57.9,97,81,55,30.04,29.85,27,4,27,0.59
2013-7-23,76.8,66.4,52.9,63.3,56.3,51.2,96,72,50,30.14,29.88,15,5,15,0.00
2013-7-24,75.6,61.6,47.7,57.6,52.4,47.4,99,75,46,30.23,30.13,11,2,11,0.00
2013-7-25,79.5,63.1,49.1,64.3,56.8,48.6,99,82,43,30.20,29.83,15,3,15,1.42
2013-7-26,78.1,65.8,55.9,67.4,59.9,53.1,96,83,48,29.83,29.71,16,4,16,0.15
2013-7-27,63.9,55.5,51.1,54.4,47.3,42.8,88,75,53,30.55,29.73,15,5,15,0.00
2013-7-28,67.5,57.5,51.1,53.7,49.8,46.9,93,76,57,29.88,29.71,13,4,14,0.02
2013-7-29,77.2,62.4,48.2,59.5,54.1,46.8,96,76,54,30.01,29.88,10,2,10,0.00
2013-7-30,70.9,62.0,50.0,61.6,57.4,49.2,98,85,69,30.02,29.93,9,2,9,0.00
2013-7-31,79.7,67.7,56.5,66.4,61.7,55.3,96,82,59,29.94,29.83,14,2,14,0.17
2013-8-1,79.2,66.0,53.2,60.5,56.2,52.4,97,74,44,29.88,29.77,13,3,13,0.00
2013-8-2,80.8,68.8,59.2,67.4,59.8,53.9,95,75,48,29.84,29.70,10,2,10,0.44
2013-8-3,77.7,63.8,48.6,59.3,53.3,47.8,97,72,44,30.00,29.83,11,2,11,0.00
2013-8-4,77.5,62.6,46.8,60.7,54.5,46.2,98,78,44,30.08,29.96,11,2,11,0.00
2013-8-5,71.4,62.6,53.2,63.5,58.6,52.1,97,88,68,29.96,29.72,16,3,16,0.05
2013-8-6,83.8,72.6,63.0,69.2,65.9,61.5,97,81,59,29.75,29.66,11,3,11,0.01
2013-8-7,80.1,72.0,57.9,69.6,64.2,56.3,95,78,56,30.52,29.62,14,4,14,0.00
2013-8-8,81.1,67.3,55.2,64.7,59.4,52.9,96,78,47,29.91,29.84,12,2,12,0.00
2013-8-9,80.1,66.3,53.6,64.5,58.3,52.1,97,77,52,29.93,29.84,11,2,11,0.00
2013-8-10,77.2,63.0,48.4,58.8,53.9,47.6,97,75,47,30.02,29.93,10,2,10,0.00
2013-8-11,75.0,62.7,49.1,64.4,58.2,48.3,97,86,67,30.00,29.88,10,2,10,0.14
2013-8-12,81.7,69.2,55.6,67.4,61.7,53.3,96,79,51,29.90,29.78,11,2,11,0.05
2013-8-13,72.5,61.7,50.7,56.6,50.8,46.2,93,69,44,30.01,29.85,17,5,17,0.00
2013-8-14,74.7,56.3,41.7,55.2,49.2,40.9,98,80,44,30.08,29.98,9,1,9,0.00
2013-8-15,78.1,61.8,49.8,58.8,53.1,48.6,97,77,39,30.00,29.94,8,1,9,0.00
2013-8-16,81.9,64.3,47.1,59.2,53.1,46.3,98,72,37,30.05,29.98,11,2,11,0.00
2013-8-17,81.9,64.4,46.6,59.1,52.8,45.8,98,71,34,30.10,30.01,13,2,13,0.00
2013-8-18,81.9,64.5,46.0,61.1,53.5,45.2,98,72,36,30.07,29.95,11,2,11,0.22
2013-8-19,82.2,65.9,48.9,64.5,57.3,48.1,98,77,46,29.96,29.88,14,2,14,0.00
2013-8-20,86.5,70.8,54.0,66.9,60.7,52.9,97,74,46,29.93,29.85,15,4,15,0.00
2013-8-21,88.9,77.0,66.6,69.4,65.9,62.0,91,70,47,29.88,29.79,21,6,21,0.00
2013-8-22,78.8,68.8,60.3,68.1,64.9,58.8,96,88,66,30.00,29.84,21,3,21,0.64
2013-8-23,82.0,67.6,52.5,62.8,57.7,52.0,98,74,44,30.04,29.97,12,2,12,0.00
2013-8-24,83.7,69.0,53.8,67.0,60.4,51.9,95,76,43,30.03,29.77,12,3,12,0.00
2013-8-25,86.7,76.6,66.0,68.9,65.6,53.4,88,70,49,29.95,29.84,18,6,18,0.00
2013-8-26,90.1,78.2,68.0,73.9,68.2,62.7,88,72,54,29.95,29.79,15,4,15,0.00
2013-8-27,92.7,80.3,69.4,72.9,69.8,65.1,92,72,51,29.80,29.65,20,5,20,0.00
2013-8-28,83.5,74.1,64.9,70.8,68.4,63.3,95,83,61,29.88,29.67,12,4,12,0.00
2013-8-29,86.5,72.7,57.6,69.7,64.5,56.7,97,78,49,29.92,29.78,11,3,12,0.00
2013-8-30,93.9,78.0,66.9,76.1,69.7,64.7,95,77,51,29.80,29.61,14,5,14,0.00
2013-8-31,82.6,70.5,59.5,68.8,63.2,57.8,94,78,60,29.72,29.63,16,4,16,0.00
2013-9-1,86.5,70.0,58.5,70.4,62.7,54.6,98,80,47,29.69,29.56,13,3,13,0.00
2013-9-2,70.2,61.3,48.6,58.4,54.2,47.2,96,79,56,29.84,29.68,14,3,14,0.00
2013-9-3,75.0,58.0,41.9,57.3,50.0,41.6,99,78,47,29.93,29.83,9,2,9,0.00
2013-9-4,85.6,64.2,42.6,63.6,55.0,42.3,99,76,45,29.94,29.86,11,2,11,0.00
2013-9-5,76.1,66.6,54.7,62.1,57.8,46.9,95,74,58,30.08,29.93,15,6,15,0.00
2013-9-6,54.5,50.6,50.4,48.3,47.1,46.6,89,88,76,30.04,30.02,4,0,4,0.00
2013-9-7,91.4,67.0,50.5,70.7,58.1,47.1,93,76,44,30.08,29.87,15,2,15,0.00
2013-9-8,72.3,67.6,62.2,66.0,61.9,57.0,87,82,75,30.06,29.94,24,9,24,0.00
2013-9-9,92.8,75.8,63.1,73.9,66.9,60.8,96,76,50,29.95,29.77,16,4,16,0.00
2013-9-10,93.9,81.5,69.3,65.9,62.6,59.4,78,55,35,29.95,29.83,22,7,22,0.00
2013-9-11,85.3,70.6,59.4,67.5,63.3,57.6,95,79,49,30.09,29.95,15,3,15,0.18
2013-9-12,74.8,62.4,51.4,60.1,52.3,45.5,98,72,44,30.13,29.98,19,4,19,0.00
2013-9-13,66.9,52.9,39.2,46.0,41.7,37.6,95,69,37,30.22,30.12,15,4,15,0.00
2013-9-14,71.8,54.1,33.8,49.5,42.4,32.3,99,69,38,30.15,29.96,13,3,13,0.00
2013-9-15,60.6,54.6,49.1,55.7,51.7,46.3,96,90,69,30.20,29.94,17,4,17,0.53
2013-9-16,65.1,53.6,42.4,51.9,44.7,37.7,91,73,49,30.38,28.08,17,7,17,0.00
2013-9-17,68.9,53.3,35.1,54.5,46.6,33.2,98,79,56,30.31,30.05,15,3,15,0.01
2013-9-18,77.0,66.4,57.6,65.5,59.5,52.7,91,79,64,30.05,29.86,19,5,19,0.00
2013-9-19,87.3,70.7,64.6,71.3,65.7,60.8,96,85,53,29.89,29.71,30,5,30,1.42
2013-9-20,70.5,63.9,52.7,64.6,57.8,49.6,96,81,62,29.84,29.73,16,6,16,0.00
2013-9-21,63.9,53.1,40.5,50.2,46.2,38.8,96,79,54,29.94,29.83,14,3,14,0.00
2013-9-22,66.6,51.0,36.1,49.6,43.3,34.6,99,77,52,30.06,29.93,10,2,10,0.00
2013-9-23,69.4,54.1,37.6,52.9,46.1,36.8,97,76,53,30.09,29.99,14,4,15,0.00
2013-9-24,72.3,55.8,38.1,53.7,47.0,37.3,98,75,46,30.02,29.92,16,3,16,0.00
2013-9-25,72.7,55.9,39.9,55.3,47.9,39.1,98,77,47,29.98,29.91,17,3,17,0.00
2013-9-26,76.6,56.3,37.2,58.3,47.7,35.4,98,77,44,30.06,29.96,13,3,13,0.00
2013-9-27,80.6,61.1,41.0,56.2,48.9,40.2,98,69,34,30.11,27.01,16,3,16,0.00
2013-9-28,80.4,62.8,52.2,64.5,54.0,45.7,93,74,50,30.01,29.82,26,6,26,0.24
2013-9-29,71.4,54.5,41.2,53.6,45.6,40.9,99,76,38,30.06,29.96,8,2,8,0.01
2013-9-30,73.4,55.5,36.9,49.4,44.0,35.6,99,70,34,29.97,29.79,19,4,19,0.00
2013-10-1,80.8,63.1,47.7,60.5,54.3,43.7,96,76,47,29.96,29.81,21,5,21,0.00
2013-10-2,78.1,58.8,39.4,54.2,44.9,36.2,99,67,27,30.10,29.95,11,2,11,0.00
2013-10-3,76.5,63.2,51.6,66.4,57.5,42.5,96,82,60,29.95,29.80,16,3,16,0.00
2013-10-4,68.0,63.5,58.1,65.6,62.0,57.3,98,95,86,29.98,29.84,16,4,16,0.39
2013-10-5,74.1,65.1,54.0,69.5,62.4,43.9,99,91,65,30.60,29.73,16,5,16,0.08
2013-10-6,59.4,48.6,37.8,45.9,40.7,36.5,96,76,48,30.51,29.66,14,4,14,0.01
2013-10-7,69.3,52.1,37.4,47.0,42.5,35.8,95,73,38,30.05,29.70,15,4,15,0.00
2013-10-8,75.9,54.4,34.5,52.4,42.2,32.7,98,69,30,30.11,30.04,21,3,21,0.00
2013-10-9,73.4,55.1,40.8,51.4,44.0,39.1,96,71,35,30.17,30.07,29,2,29,0.00
2013-10-10,73.4,48.7,34.2,53.5,41.9,32.6,99,81,42,30.13,30.05,12,2,12,0.00
2013-10-11,74.5,59.7,41.4,57.8,51.4,40.8,99,75,52,30.00,29.86,14,3,14,0.00
2013-10-12,69.8,59.5,37.4,57.7,47.7,34.2,90,67,37,30.13,29.85,21,6,21,0.00
2013-10-13,63.3,44.7,30.7,44.1,33.7,28.4,95,70,29,30.37,30.13,11,2,11,0.00
2013-10-14,61.9,45.4,26.6,44.7,36.9,23.8,94,74,50,30.38,30.07,19,5,19,0.00
2013-10-15,60.8,52.0,47.7,57.2,46.9,41.7,94,83,69,30.07,29.71,22,7,22,0.32
2013-10-16,52.9,48.5,45.5,47.7,44.9,42.2,93,87,78,29.91,29.75,17,6,17,0.01
2013-10-17,54.9,44.7,32.9,45.3,40.6,30.3,97,86,59,29.89,29.78,8,2,8,0.09
2013-10-18,46.9,40.5,32.2,42.0,35.6,29.9,96,83,64,29.91,29.77,20,4,20,0.00
2013-10-19,52.7,38.9,27.5,40.8,33.4,24.4,93,82,44,29.88,29.69,24,4,24,0.05
2013-10-20,46.4,39.3,26.2,40.5,34.0,22.7,94,81,74,29.81,29.69,9,4,9,0.12
2013-10-21,45.5,37.9,28.6,40.3,27.5,19.5,84,66,49,29.92,29.72,20,7,20,0.01
2013-10-22,46.4,33.7,20.3,29.6,23.8,14.3,81,68,47,29.94,29.86,12,2,12,0.00
2013-10-23,43.7,33.2,21.6,29.0,23.7,17.0,85,69,46,29.99,29.91,15,3,15,0.00
2013-10-24,45.3,34.9,28.4,26.0,22.7,18.8,75,62,42,30.74,29.98,17,4,17,0.00
2013-10-25,52.2,38.0,20.1,30.1,23.2,14.7,85,58,34,30.30,29.88,28,8,28,0.00
2013-10-26,53.8,43.2,29.3,35.5,27.6,22.3,80,55,34,30.03,29.76,27,8,27,0.00
2013-10-27,55.2,37.2,22.3,31.3,24.4,17.7,86,63,31,30.03,29.85,22,4,22,0.00
2013-10-28,42.6,38.4,26.8,32.1,28.9,20.8,85,69,61,30.35,29.99,28,10,28,0.00
2013-10-29,50.4,42.8,35.6,39.1,33.7,25.8,84,70,63,30.34,30.08,13,6,13,0.00
2013-10-30,54.3,48.5,41.0,52.3,46.2,36.5,95,92,83,30.08,29.70,17,4,17,0.00
2013-10-31,60.8,54.1,42.1,58.3,51.3,37.9,94,90,85,29.70,29.28,19,7,19,0.54
2013-11-1,46.8,42.0,34.2,41.2,37.6,29.8,88,84,77,29.72,29.34,17,6,17,0.01
2013-11-2,46.4,37.9,26.8,36.1,31.0,11.8,88,77,60,30.11,29.72,14,3,14,0.01
2013-11-3,50.9,36.9,21.0,36.7,27.7,16.9,85,71,47,30.23,30.10,16,4,16,0.00
2013-11-4,51.4,46.8,39.9,43.6,36.6,32.2,85,68,57,30.14,29.98,24,8,24,0.00
2013-11-5,53.8,48.9,43.7,47.8,44.2,39.5,90,84,70,30.20,29.88,19,4,19,0.25
2013-11-6,77.0,48.1,27.3,56.6,39.3,18.4,87,73,43,30.09,29.88,12,5,15,0.00
2013-11-7,43.9,32.7,23.5,31.0,23.7,16.5,79,69,53,30.15,30.08,12,3,12,0.00
2013-11-8,46.4,34.8,18.3,31.6,24.6,11.8,81,67,54,30.19,29.71,21,5,21,0.00
2013-11-9,53.1,45.4,36.1,38.5,32.2,21.3,72,60,47,30.03,29.68,28,12,28,0.00
2013-11-10,49.5,40.8,32.9,29.3,26.4,21.1,65,57,43,30.24,30.03,18,7,18,0.00
2013-11-11,43.2,31.3,17.8,30.7,20.6,6.1,83,65,55,30.47,29.97,18,5,18,0.05
2013-11-12,31.5,21.6,14.2,14.7,8.2,4.0,64,56,42,30.61,30.44,13,5,13,0.02
2013-11-13,41.9,26.6,14.4,15.6,9.8,4.8,66,50,29,30.45,29.97,21,8,24,0.00
2013-11-14,47.7,37.5,30.7,28.0,21.3,13.2,72,52,42,29.98,29.80,22,7,22,0.00
2013-11-15,56.3,41.3,26.8,36.2,28.7,19.0,78,62,44,29.85,29.78,14,4,14,0.00
2013-11-16,57.0,46.8,32.0,51.7,42.3,25.3,91,84,76,29.79,29.39,23,10,30,0.22
2013-11-17,56.7,48.6,37.0,51.8,43.5,28.5,90,83,71,29.63,29.12,29,9,29,0.64
2013-11-18,40.3,33.2,27.1,28.7,22.0,16.9,74,63,49,30.10,29.63,24,9,24,0.01
2013-11-19,140.0,30.4,28.0,99.9,19.6,17.8,82,65,43,30.10,29.71,7,3,7,0.00
2013-11-20,74.5,62.6,48.2,58.8,51.3,42.4,99,70,34,29.95,29.87,17,5,17,0.00
2013-11-21,77.0,54.2,36.7,60.3,45.6,30.3,98,75,43,30.04,29.87,12,4,12,0.00
2013-11-22,36.7,29.8,21.9,30.3,19.7,8.9,84,67,46,30.26,30.04,12,5,14,0.07
2013-11-23,140.0,18.3,8.2,99.9,0.7,-6.6,65,46,34,30.42,29.37,21,8,21,0.19
2013-11-24,26.8,16.6,3.9,3.1,-2.4,-6.0,64,44,24,29.91,29.48,25,8,25,0.00
2013-11-25,29.1,25.2,19.8,22.2,14.9,2.2,77,65,39,29.48,29.25,25,11,25,0.00
2013-11-26,31.6,23.9,10.4,22.4,10.6,-5.3,75,57,38,29.46,29.25,20,6,20,0.00
2013-11-27,27.7,17.0,7.2,7.2,1.3,-8.7,59,50,33,29.51,29.42,12,4,12,0.00
2013-11-28,30.9,22.8,9.0,12.9,8.0,-2.0,65,53,43,29.72,29.36,14,3,14,0.00
2013-11-29,30.9,18.5,1.4,15.0,6.2,-7.8,70,58,48,29.83,29.55,14,3,14,0.00
2013-11-30,43.0,30.2,20.8,28.3,19.9,12.0,78,66,55,29.55,29.27,14,4,14,0.00
2013-12-1,41.0,30.9,24.4,25.6,21.4,16.4,82,68,52,29.39,29.21,12,2,12,0.00
2013-12-2,38.7,29.2,16.2,30.4,21.8,8.8,84,74,62,29.21,28.97,17,4,17,0.05
2013-12-3,37.9,35.6,32.7,35.6,32.2,28.4,91,87,84,29.00,28.91,12,6,13,0.06
2013-12-4,48.0,39.0,32.2,45.8,35.7,25.6,92,88,75,28.99,28.71,30,7,30,0.05
2013-12-5,32.0,20.0,11.7,25.8,7.8,-0.4,79,59,47,29.51,28.90,32,11,32,0.00
2013-12-6,18.0,9.7,5.2,-0.2,-4.5,-7.8,59,52,37,29.77,29.49,11,5,11,0.00
2013-12-7,16.9,6.4,-0.4,-3.5,-8.7,-13.1,61,50,26,29.91,29.77,9,3,9,0.00
2013-12-8,19.0,14.0,5.9,11.9,2.8,-7.7,73,61,44,29.80,29.18,16,5,16,0.00
2013-12-9,15.8,5.6,-14.8,8.6,-6.5,-28.2,73,57,42,29.42,29.16,28,7,28,0.00
2013-12-10,18.3,5.9,-17.3,3.2,-8.0,-32.0,66,52,42,29.47,29.13,24,8,24,0.00
2013-12-11,13.5,5.2,-11.2,4.8,-11.4,-27.9,68,47,26,29.73,29.46,16,4,16,0.00
2013-12-12,17.4,7.5,-8.5,3.3,-6.7,-23.7,61,51,42,29.70,29.39,16,6,16,0.00
2013-12-13,23.0,16.7,8.6,12.4,6.0,-2.4,68,62,52,29.42,29.35,21,8,21,0.00
2013-12-14,24.3,19.4,15.1,14.1,10.1,5.5,72,67,59,29.39,29.16,21,8,21,0.00
2013-12-15,17.8,9.7,8.8,6.7,-3.2,-4.4,63,55,53,29.22,29.16,21,6,21,0.00
2013-12-16,77.0,9.7,8.8,53.4,-2.6,-4.4,71,57,44,30.03,29.21,9,5,9,0.00
2013-12-17,35.6,23.6,14.2,21.9,11.9,1.0,77,61,43,29.97,29.80,20,9,20,0.12
2013-12-18,35.4,21.8,4.1,21.1,8.2,-8.2,69,56,40,29.99,29.66,21,5,21,0.00
2013-12-19,30.9,23.8,14.7,22.0,15.1,7.1,78,69,57,29.86,29.68,21,7,21,0.00
2013-12-20,23.4,21.2,19.4,16.6,15.1,13.3,79,77,74,29.79,29.70,23,7,23,0.00
2013-12-21,21.9,21.9,21.9,16.4,16.4,16.4,79,79,79,29.72,29.72,3,3,4,0.00
2013-12-22,25.2,22.0,11.7,17.4,16.0,2.6,79,77,66,30.14,29.72,8,2,8,0.05
2013-12-23,21.6,6.1,-8.0,15.8,-4.6,-21.4,78,60,47,30.44,30.14,13,6,14,0.00
2013-12-24,9.0,-0.9,-17.0,-2.5,-13.6,-42.2,64,54,44,30.54,30.28,8,2,8,0.00
2013-12-25,21.9,17.9,7.3,14.6,10.0,-2.5,75,71,63,30.28,30.09,14,6,14,0.00
2013-12-26,28.0,19.1,5.2,16.7,9.6,-4.6,74,66,58,30.24,30.12,10,3,12,0.01
2013-12-27,35.6,23.6,5.0,24.5,14.3,-3.8,76,67,60,30.26,30.04,21,4,21,0.00
2013-12-28,43.9,32.6,15.6,28.5,22.1,8.3,77,65,54,30.08,29.78,17,6,17,0.08
2013-12-29,36.0,18.1,-6.5,26.3,5.8,-22.3,76,58,44,30.26,27.93,24,7,24,0.00
2013-12-30,77.0,-6.3,-21.3,52.8,-21.8,-36.4,55,46,31,30.32,29.88,7,1,7,0.00
2013-12-31,7.0,-1.9,-16.6,-5.6,-14.5,-29.8,59,53,48,30.06,29.90,13,2,13,0.00
2014-1-1,7.7,3.5,-1.1,-7.9,-12.2,-18.3,54,47,41,30.08,30.00,17,9,17,0.00
2014-1-2,14.2,3.3,-18.4,-3.2,-12.7,-38.5,55,46,38,30.14,29.97,15,4,15,0.00